San Jose Tobias Bolanos, Costa Rica

5:19 AM CST on February 08, 2016 (GMT -0600)
Pozos de Santa Ana | | Change Station
CLOSE
Current Station
Personal Weather Station
Location: San Jose, San Jose
Elevation: 2825 ft
Nearby Weather Stations

Elev 2825 ft 9.96 °N, 84.19 °W | Updated 25 seconds ago

Clear
Clear
66.2 °F
Feels Like 66.2 °F
N
13.0
Wind Variable Wind from East
Gusts 19.9 mph

Today
High -- | Low -- °F
--% Chance of Precip.
Yesterday
High -- | Low -- °F
Precip. -- in
Pressure 29.99 in
Visibility -9999.0 miles
Clouds
Dew Point 58 °F
Humidity 74%
Rainfall 0.00 in
Snow Depth Not available.
5:58 AM 5:43 PM
Waning Crescent, 0% visible
METAR MROC 081100Z 10020G32KT CAVOK 19/12 A2999 NOSIG
Pressure 29.99 in
Visibility -9999.0 miles
Clouds
Dew Point 58 °F
Humidity 74%
Rainfall 0.00 in
Snow Depth Not available.
5:58 AM 5:43 PM
Waning Crescent, 0% visible
METAR MROC 081100Z 10020G32KT CAVOK 19/12 A2999 NOSIG

10-Day Weather Forecast

No radar image for this location.
×

Almanac

Astronomy

Feb. 08, 2016 Rise Set
Actual Time
Civil Twilight
Nautical Twilight
Astronomical Twilight
Moon
Length of Visible Light
Length of Day
Tomorrow will be .
, % of the Moon is Illuminated

Today's Extremes

Country Highs Country Lows

Community

WunderPhotos

Upload Photos

1,891,420 photos uploaded!

WunderBlog® & News

Nearby

Air Quality

  Air Quality AQ Index Pollutant
Not available.

Snow Depth

Station Depth Elevation

Earthquake Activity

City Distance Mag. Time & Date
Minimum magnitude displayed is 2.5.

Coastal Water Temperatures

Place Temperature

Stations

Nearby Weather Stations

Station Location Temp. Windchill Dew Point Humidity Wind Precip. Elev Updated Type